Time;durP1;ratioP1;P1;durP2;ratioP2;P2;SDS_P1;SDS_P2;PMS_P1;PMS_P2;Temp;Humidity;BMP_temperature;BMP_pressure;BME280_temperature;BME280_humidity;BME280_pressure;Samples;Min_cycle;Max_cycle;Signal;HPM_P1;HPM_P2
2023/05/23 00:01:59;;;;;;;53.45;19.00;;;;;;;;;;5107031;28;20051;-71
2023/05/23 00:04:25;;;;;;;58.97;18.05;;;;;;;;;;5097157;28;20039;-72
2023/05/23 00:06:52;;;;;;;47.70;18.25;;;;;;;;;;5102467;28;20485;-72
2023/05/23 00:09:18;;;;;;;47.15;17.45;;;;;;;;;;5102460;28;20040;-71
2023/05/23 00:11:44;;;;;;;50.22;19.15;;;;;;;;;;5098879;28;20035;-72
2023/05/23 00:14:13;;;;;;;50.35;18.80;;;;;;;;;;5097583;28;20457;-72
2023/05/23 00:16:43;;;;;;;49.35;19.50;;;;;;;;;;5093837;27;20504;-72
2023/05/23 00:19:10;;;;;;;49.22;18.70;;;;;;;;;;5108654;27;20085;-72
2023/05/23 00:21:36;;;;;;;60.63;19.02;;;;;;;;;;5107895;28;20031;-72
2023/05/23 00:24:01;;;;;;;50.15;18.95;;;;;;;;;;5097706;28;20621;-72
2023/05/23 00:26:28;;;;;;;49.22;18.73;;;;;;;;;;5098689;27;20073;-72
2023/05/23 00:28:55;;;;;;;52.42;18.17;;;;;;;;;;5092165;27;20070;-72
2023/05/23 00:31:21;;;;;;;53.53;17.92;;;;;;;;;;5097247;27;20015;-72
2023/05/23 00:33:46;;;;;;;50.67;17.65;;;;;;;;;;5093946;27;20043;-71
2023/05/23 00:36:12;;;;;;;41.78;16.60;;;;;;;;;;5094787;27;20044;-72
2023/05/23 00:38:38;;;;;;;49.05;17.08;;;;;;;;;;5095799;28;20032;-72
2023/05/23 00:41:04;;;;;;;48.13;17.95;;;;;;;;;;5101584;27;20035;-72
2023/05/23 00:43:30;;;;;;;46.47;16.50;;;;;;;;;;5103795;27;20053;-71
2023/05/23 00:45:56;;;;;;;43.38;15.63;;;;;;;;;;5106472;28;20463;-71
2023/05/23 00:48:21;;;;;;;42.47;16.88;;;;;;;;;;5107361;28;20034;-72
2023/05/23 00:50:47;;;;;;;39.15;15.13;;;;;;;;;;5095964;27;20028;-72
2023/05/23 00:53:13;;;;;;;41.90;15.40;;;;;;;;;;5101183;27;20081;-72
2023/05/23 00:55:38;;;;;;;44.05;15.73;;;;;;;;;;5108864;27;20038;-72
2023/05/23 00:58:04;;;;;;;43.97;16.50;;;;;;;;;;5105257;27;20023;-71
2023/05/23 01:00:32;;;;;;;51.90;17.48;;;;;;;;;;5114684;27;20044;-72
2023/05/23 01:02:58;;;;;;;40.47;15.27;;;;;;;;;;5104361;27;20039;-72
2023/05/23 01:05:23;;;;;;;47.38;16.10;;;;;;;;;;5106988;27;20622;-72
2023/05/23 01:07:50;;;;;;;44.65;15.32;;;;;;;;;;5097019;28;20069;-72
2023/05/23 01:10:22;;;;;;;42.75;17.25;;;;;;;;;;5091787;27;20028;-71
2023/05/23 01:12:56;;;;;;;44.80;16.15;;;;;;;;;;5100183;28;20057;-71
2023/05/23 01:15:28;;;;;;;47.47;17.02;;;;;;;;;;5108482;28;20096;-72
2023/05/23 01:18:02;;;;;;;43.15;16.88;;;;;;;;;;5103420;28;20105;-72
2023/05/23 01:20:33;;;;;;;55.08;16.23;;;;;;;;;;5106804;27;20027;-72
2023/05/23 01:23:05;;;;;;;45.92;16.23;;;;;;;;;;5090433;28;20044;-72
2023/05/23 01:25:58;;;;;;;44.27;16.37;;;;;;;;;;5097749;27;20167;-72
2023/05/23 01:28:27;;;;;;;52.15;15.82;;;;;;;;;;5101306;27;20024;-72
2023/05/23 01:30:56;;;;;;;55.03;20.33;;;;;;;;;;5091811;28;20445;-72
2023/05/23 01:33:23;;;;;;;51.35;16.52;;;;;;;;;;5104676;27;20115;-72
2023/05/23 01:35:49;;;;;;;50.13;17.02;;;;;;;;;;5102169;27;20040;-72
2023/05/23 01:38:15;;;;;;;43.25;15.15;;;;;;;;;;5092953;27;20846;-71
2023/05/23 01:40:40;;;;;;;44.50;16.83;;;;;;;;;;5103797;28;20127;-72
2023/05/23 01:43:06;;;;;;;42.08;15.40;;;;;;;;;;5099219;27;20046;-72
2023/05/23 01:45:32;;;;;;;44.22;15.73;;;;;;;;;;5106738;28;20070;-72
2023/05/23 01:47:59;;;;;;;45.67;15.88;;;;;;;;;;5098050;28;20077;-72
2023/05/23 01:50:25;;;;;;;43.10;15.60;;;;;;;;;;5104942;28;20036;-72
2023/05/23 01:52:52;;;;;;;47.15;16.42;;;;;;;;;;5097415;27;20043;-72
2023/05/23 01:55:21;;;;;;;43.13;15.95;;;;;;;;;;5101548;27;20118;-72
2023/05/23 01:57:49;;;;;;;48.60;15.75;;;;;;;;;;5109182;27;20024;-72
2023/05/23 02:00:15;;;;;;;45.85;16.40;;;;;;;;;;5098881;27;20042;-72
2023/05/23 02:02:41;;;;;;;51.10;18.02;;;;;;;;;;5098818;28;20036;-72
2023/05/23 02:05:06;;;;;;;43.20;15.73;;;;;;;;;;5105402;27;20039;-72
2023/05/23 02:07:32;;;;;;;46.22;15.38;;;;;;;;;;5100178;28;20024;-72
2023/05/23 02:09:57;;;;;;;44.30;16.08;;;;;;;;;;5091402;28;20066;-72
2023/05/23 02:12:22;;;;;;;39.28;15.48;;;;;;;;;;5090652;28;20036;-72
2023/05/23 02:14:51;;;;;;;44.70;14.85;;;;;;;;;;5093736;27;20042;-72
2023/05/23 02:17:17;;;;;;;43.28;15.48;;;;;;;;;;5097080;27;20032;-72
2023/05/23 02:19:42;;;;;;;41.40;15.20;;;;;;;;;;5105532;27;20901;-72
2023/05/23 02:22:07;;;;;;;42.92;14.85;;;;;;;;;;5103939;27;20133;-72
2023/05/23 02:24:33;;;;;;;43.65;14.25;;;;;;;;;;5095921;27;20051;-72
2023/05/23 02:26:58;;;;;;;41.38;14.98;;;;;;;;;;5102562;27;20530;-72
2023/05/23 02:29:23;;;;;;;35.50;14.55;;;;;;;;;;5106140;27;20036;-72
2023/05/23 02:31:49;;;;;;;37.67;15.05;;;;;;;;;;5088879;27;20567;-72
2023/05/23 02:34:15;;;;;;;47.78;15.63;;;;;;;;;;5101583;27;20015;-72
2023/05/23 02:36:40;;;;;;;44.63;17.55;;;;;;;;;;5098849;27;20036;-72
2023/05/23 02:39:05;;;;;;;53.35;19.58;;;;;;;;;;5106223;27;20055;-72
2023/05/23 02:41:31;;;;;;;53.40;17.98;;;;;;;;;;5103220;27;20110;-72
2023/05/23 02:43:57;;;;;;;54.42;18.73;;;;;;;;;;5097461;28;20036;-72
2023/05/23 02:46:22;;;;;;;60.75;19.63;;;;;;;;;;5089095;27;20455;-72
2023/05/23 02:48:48;;;;;;;62.80;20.17;;;;;;;;;;5104566;28;20022;-72
2023/05/23 02:51:13;;;;;;;67.78;19.50;;;;;;;;;;5102575;27;20039;-71
2023/05/23 02:53:39;;;;;;;49.53;18.05;;;;;;;;;;5104637;28;20408;-72
2023/05/23 02:56:06;;;;;;;54.55;18.50;;;;;;;;;;5107221;27;20028;-71
2023/05/23 02:58:34;;;;;;;51.45;18.05;;;;;;;;;;5091412;28;20028;-72
2023/05/23 03:00:59;;;;;;;53.13;18.17;;;;;;;;;;5101608;28;20740;-72
2023/05/23 03:03:27;;;;;;;51.17;17.27;;;;;;;;;;5099803;28;20032;-72
2023/05/23 03:05:53;;;;;;;58.03;19.75;;;;;;;;;;5091094;28;20036;-72
2023/05/23 03:08:18;;;;;;;54.13;20.02;;;;;;;;;;5097441;27;20096;-72
2023/05/23 03:10:43;;;;;;;57.40;18.40;;;;;;;;;;5096694;27;20070;-72
2023/05/23 03:13:09;;;;;;;57.05;19.25;;;;;;;;;;5104807;27;20072;-72
2023/05/23 03:15:35;;;;;;;53.83;19.08;;;;;;;;;;5094222;28;20047;-72
2023/05/23 03:18:00;;;;;;;50.25;17.60;;;;;;;;;;5104603;27;20516;-72
2023/05/23 03:20:26;;;;;;;52.83;18.27;;;;;;;;;;5099448;27;20042;-72
2023/05/23 03:22:51;;;;;;;49.63;16.92;;;;;;;;;;5091500;27;20043;-72
2023/05/23 03:25:16;;;;;;;48.05;16.58;;;;;;;;;;5095154;27;20028;-72
2023/05/23 03:27:42;;;;;;;50.67;17.45;;;;;;;;;;5105442;28;20035;-72
2023/05/23 03:30:09;;;;;;;59.95;19.35;;;;;;;;;;5104136;27;20032;-72
2023/05/23 03:32:35;;;;;;;54.22;19.90;;;;;;;;;;5104005;27;20126;-72
2023/05/23 03:35:00;;;;;;;59.35;20.80;;;;;;;;;;5103762;27;20527;-72
2023/05/23 03:37:25;;;;;;;69.22;21.98;;;;;;;;;;5097748;28;20115;-72
2023/05/23 03:39:51;;;;;;;72.90;21.95;;;;;;;;;;5098215;28;20598;-72
2023/05/23 03:42:17;;;;;;;68.07;21.52;;;;;;;;;;5099015;28;20066;-72
2023/05/23 03:44:42;;;;;;;70.13;23.00;;;;;;;;;;5086434;28;20035;-72
2023/05/23 03:47:08;;;;;;;70.55;23.48;;;;;;;;;;5097754;27;20420;-72
2023/05/23 03:49:34;;;;;;;68.78;22.48;;;;;;;;;;5099846;28;20058;-72
2023/05/23 03:51:59;;;;;;;63.67;22.13;;;;;;;;;;5107817;27;20061;-72
2023/05/23 03:54:24;;;;;;;71.40;21.77;;;;;;;;;;5097285;27;20081;-72
2023/05/23 03:56:50;;;;;;;77.32;23.50;;;;;;;;;;5115832;27;20084;-72
2023/05/23 03:59:15;;;;;;;60.97;21.77;;;;;;;;;;5109350;27;20041;-72
2023/05/23 04:01:41;;;;;;;66.45;21.85;;;;;;;;;;5115610;27;20342;-72
2023/05/23 04:04:06;;;;;;;58.10;20.05;;;;;;;;;;5110977;27;20065;-72
2023/05/23 04:06:32;;;;;;;42.40;16.17;;;;;;;;;;5107165;28;20015;-72
2023/05/23 04:08:57;;;;;;;34.15;13.38;;;;;;;;;;5102789;28;20036;-72
2023/05/23 04:11:23;;;;;;;37.50;13.98;;;;;;;;;;5096729;27;20036;-72
2023/05/23 04:13:48;;;;;;;30.17;13.25;;;;;;;;;;5100355;28;20040;-72
2023/05/23 04:16:13;;;;;;;24.65;10.75;;;;;;;;;;5104191;27;20450;-72
2023/05/23 04:18:39;;;;;;;29.42;11.40;;;;;;;;;;5104018;28;20138;-71
2023/05/23 04:21:05;;;;;;;25.02;11.00;;;;;;;;;;5094557;28;20788;-71
2023/05/23 04:23:30;;;;;;;25.80;10.95;;;;;;;;;;5103916;27;20881;-71
2023/05/23 04:25:59;;;;;;;25.38;10.98;;;;;;;;;;5100369;28;20043;-71
2023/05/23 04:28:26;;;;;;;26.88;10.75;;;;;;;;;;5102614;27;20045;-71
2023/05/23 04:30:52;;;;;;;30.35;12.55;;;;;;;;;;5094311;28;20035;-71
2023/05/23 04:33:17;;;;;;;34.10;11.80;;;;;;;;;;5097859;27;20035;-71
2023/05/23 04:35:43;;;;;;;32.55;12.57;;;;;;;;;;5095429;27;20089;-71
2023/05/23 04:38:09;;;;;;;29.02;12.27;;;;;;;;;;5095520;27;20032;-72
2023/05/23 04:40:34;;;;;;;27.45;11.73;;;;;;;;;;5104550;27;20039;-71
2023/05/23 04:43:00;;;;;;;28.77;12.10;;;;;;;;;;5104614;28;20151;-71
2023/05/23 04:45:25;;;;;;;30.42;13.07;;;;;;;;;;5107557;27;20067;-72
2023/05/23 04:47:53;;;;;;;30.00;11.18;;;;;;;;;;5104656;27;20116;-72
2023/05/23 04:50:20;;;;;;;25.58;11.60;;;;;;;;;;5095705;27;20092;-72
2023/05/23 04:52:46;;;;;;;29.17;11.32;;;;;;;;;;5100719;27;20027;-72
2023/05/23 04:55:11;;;;;;;29.70;11.80;;;;;;;;;;5114134;27;20536;-72
2023/05/23 04:57:37;;;;;;;28.33;11.30;;;;;;;;;;5104855;27;20024;-72
2023/05/23 05:00:09;;;;;;;29.63;11.65;;;;;;;;;;5094734;28;20062;-72
2023/05/23 05:02:36;;;;;;;32.78;12.50;;;;;;;;;;5103425;28;20036;-71
2023/05/23 05:05:03;;;;;;;27.23;11.50;;;;;;;;;;5107579;27;20040;-72
2023/05/23 05:07:29;;;;;;;29.15;12.27;;;;;;;;;;5106897;27;20028;-72
2023/05/23 05:09:54;;;;;;;31.42;12.65;;;;;;;;;;5107556;28;20050;-72
2023/05/23 05:12:19;;;;;;;28.33;12.35;;;;;;;;;;5104574;28;20032;-72
2023/05/23 05:14:45;;;;;;;31.10;12.55;;;;;;;;;;5095598;27;20066;-72
2023/05/23 05:17:10;;;;;;;33.28;12.10;;;;;;;;;;5097441;27;20039;-72
2023/05/23 05:19:35;;;;;;;29.90;13.20;;;;;;;;;;5104557;27;20035;-71
2023/05/23 05:22:01;;;;;;;35.63;13.05;;;;;;;;;;5113222;27;20028;-72
2023/05/23 05:24:27;;;;;;;30.83;11.80;;;;;;;;;;5116100;27;20692;-72
2023/05/23 05:26:53;;;;;;;33.10;13.07;;;;;;;;;;5102837;27;20413;-72
2023/05/23 05:29:19;;;;;;;33.05;11.65;;;;;;;;;;5100317;27;20555;-72
2023/05/23 05:31:44;;;;;;;30.27;13.45;;;;;;;;;;5097282;27;20032;-72
2023/05/23 05:34:10;;;;;;;32.97;13.25;;;;;;;;;;5092973;27;20537;-72
2023/05/23 05:36:35;;;;;;;33.58;13.13;;;;;;;;;;5093309;27;20573;-72
2023/05/23 05:39:01;;;;;;;34.53;12.50;;;;;;;;;;5098599;27;20035;-72
2023/05/23 05:41:26;;;;;;;34.10;12.90;;;;;;;;;;5095252;28;20089;-72
2023/05/23 05:43:52;;;;;;;32.78;11.45;;;;;;;;;;5084982;27;20308;-72
2023/05/23 05:46:17;;;;;;;35.28;13.30;;;;;;;;;;5097092;27;20113;-72
2023/05/23 05:48:42;;;;;;;37.67;12.10;;;;;;;;;;5103096;28;20040;-72
2023/05/23 05:51:08;;;;;;;27.77;11.85;;;;;;;;;;5097828;27;20036;-72
2023/05/23 05:53:33;;;;;;;33.80;12.02;;;;;;;;;;5102299;27;20107;-71
2023/05/23 05:55:59;;;;;;;30.63;12.70;;;;;;;;;;5094147;27;20641;-71
2023/05/23 05:58:24;;;;;;;33.00;13.00;;;;;;;;;;5095679;27;20085;-71
2023/05/23 06:00:49;;;;;;;32.00;14.43;;;;;;;;;;5104249;27;20044;-71
2023/05/23 06:03:15;;;;;;;29.40;12.35;;;;;;;;;;5099517;27;20035;-72
2023/05/23 06:05:40;;;;;;;31.95;13.77;;;;;;;;;;5098094;27;20185;-71
2023/05/23 06:08:06;;;;;;;36.17;12.93;;;;;;;;;;5094479;28;20070;-72
2023/05/23 06:10:31;;;;;;;29.30;12.05;;;;;;;;;;5093746;27;20036;-72
2023/05/23 06:12:57;;;;;;;30.25;11.50;;;;;;;;;;5105398;27;20038;-71
2023/05/23 06:15:23;;;;;;;25.38;10.10;;;;;;;;;;5087791;27;20055;-71
2023/05/23 06:17:48;;;;;;;25.17;12.13;;;;;;;;;;5100510;27;20405;-71
2023/05/23 06:20:13;;;;;;;30.95;12.52;;;;;;;;;;5093831;28;20039;-71
2023/05/23 06:22:39;;;;;;;23.77;10.60;;;;;;;;;;5093987;28;20036;-71
2023/05/23 06:25:05;;;;;;;29.85;12.77;;;;;;;;;;5096168;27;20024;-71
2023/05/23 06:27:31;;;;;;;33.15;13.50;;;;;;;;;;5096163;27;20054;-71
2023/05/23 06:29:56;;;;;;;29.73;12.85;;;;;;;;;;5097404;27;20035;-71
2023/05/23 06:32:21;;;;;;;27.30;10.88;;;;;;;;;;5102371;27;20032;-71
2023/05/23 06:34:47;;;;;;;29.85;11.85;;;;;;;;;;5091227;27;20096;-71
2023/05/23 06:37:12;;;;;;;28.23;11.75;;;;;;;;;;5089972;27;20492;-71
2023/05/23 06:39:37;;;;;;;27.75;12.65;;;;;;;;;;5094342;27;21210;-71
2023/05/23 06:42:03;;;;;;;29.60;12.32;;;;;;;;;;5096054;27;20063;-71
2023/05/23 06:44:29;;;;;;;30.80;13.70;;;;;;;;;;5097478;27;20043;-71
2023/05/23 06:46:56;;;;;;;30.17;11.60;;;;;;;;;;5105736;27;20043;-72
2023/05/23 06:49:24;;;;;;;33.42;12.85;;;;;;;;;;5094194;27;20126;-71
2023/05/23 06:51:50;;;;;;;29.60;13.38;;;;;;;;;;5100192;27;20043;-71
2023/05/23 06:54:16;;;;;;;33.92;12.93;;;;;;;;;;5094251;27;20035;-71
2023/05/23 06:56:41;;;;;;;30.75;12.60;;;;;;;;;;5093109;27;20028;-71
2023/05/23 06:59:07;;;;;;;29.40;12.95;;;;;;;;;;5090077;27;20635;-72
2023/05/23 07:01:32;;;;;;;32.70;12.23;;;;;;;;;;5091884;27;20607;-71
2023/05/23 07:03:57;;;;;;;29.90;13.05;;;;;;;;;;5088968;27;20782;-71
2023/05/23 07:06:23;;;;;;;25.98;11.05;;;;;;;;;;5087696;28;20509;-71
2023/05/23 07:08:48;;;;;;;20.77;9.30;;;;;;;;;;5089361;27;20424;-71
2023/05/23 07:11:14;;;;;;;25.02;9.85;;;;;;;;;;5094539;27;20068;-71
2023/05/23 07:13:39;;;;;;;18.90;7.93;;;;;;;;;;5097470;27;20584;-71
2023/05/23 07:16:04;;;;;;;14.00;6.65;;;;;;;;;;5093967;27;20092;-71
2023/05/23 07:18:30;;;;;;;14.98;7.05;;;;;;;;;;5103006;27;20035;-71
2023/05/23 07:20:55;;;;;;;16.80;6.82;;;;;;;;;;5095073;27;20071;-71
2023/05/23 07:23:23;;;;;;;15.32;6.32;;;;;;;;;;5092185;28;20085;-71
2023/05/23 07:25:48;;;;;;;16.77;6.82;;;;;;;;;;5099597;27;20039;-71
2023/05/23 07:28:14;;;;;;;18.52;6.50;;;;;;;;;;5100094;28;20106;-71
2023/05/23 07:30:41;;;;;;;15.57;5.25;;;;;;;;;;5101267;28;20016;-71
2023/05/23 07:33:06;;;;;;;16.50;6.40;;;;;;;;;;5095439;27;20028;-71
2023/05/23 07:35:32;;;;;;;22.40;6.10;;;;;;;;;;5093204;27;20024;-71
2023/05/23 07:37:57;;;;;;;15.38;5.35;;;;;;;;;;5096409;27;20043;-71
2023/05/23 07:40:23;;;;;;;18.25;5.97;;;;;;;;;;5094751;28;20027;-72
2023/05/23 07:42:48;;;;;;;14.30;5.50;;;;;;;;;;5088771;28;20030;-72
2023/05/23 07:45:14;;;;;;;15.98;5.85;;;;;;;;;;5095624;28;20447;-72
2023/05/23 07:47:40;;;;;;;16.58;6.05;;;;;;;;;;5091551;27;20031;-71
2023/05/23 07:50:06;;;;;;;17.65;5.78;;;;;;;;;;5095984;27;20118;-72
2023/05/23 07:52:32;;;;;;;13.73;6.10;;;;;;;;;;5094460;27;20035;-72
2023/05/23 07:54:58;;;;;;;18.90;6.28;;;;;;;;;;5095032;28;20432;-72
2023/05/23 07:57:23;;;;;;;16.02;6.13;;;;;;;;;;5096427;28;20143;-71
2023/05/23 07:59:52;;;;;;;15.32;5.72;;;;;;;;;;5093720;28;20611;-71
2023/05/23 08:02:18;;;;;;;18.27;6.57;;;;;;;;;;5090295;27;20040;-71
2023/05/23 08:04:44;;;;;;;14.50;6.10;;;;;;;;;;5091717;27;20181;-72
2023/05/23 08:07:10;;;;;;;15.90;6.05;;;;;;;;;;5091766;28;20032;-71
2023/05/23 08:09:36;;;;;;;15.38;5.80;;;;;;;;;;5104625;28;20012;-71
2023/05/23 08:12:02;;;;;;;12.40;5.07;;;;;;;;;;5087732;27;20043;-72
2023/05/23 08:14:27;;;;;;;18.35;5.47;;;;;;;;;;5104714;27;20508;-71
2023/05/23 08:16:53;;;;;;;14.50;5.32;;;;;;;;;;5100296;27;20059;-71
2023/05/23 08:19:18;;;;;;;12.90;5.43;;;;;;;;;;5096176;28;20024;-71
2023/05/23 08:21:44;;;;;;;14.10;5.55;;;;;;;;;;5092060;28;20023;-70
2023/05/23 08:24:11;;;;;;;12.35;5.45;;;;;;;;;;5099555;27;20114;-71
2023/05/23 08:26:37;;;;;;;12.02;5.45;;;;;;;;;;5098695;27;20051;-72
2023/05/23 08:29:03;;;;;;;14.40;5.15;;;;;;;;;;5088258;28;20036;-71
2023/05/23 08:31:29;;;;;;;14.68;6.10;;;;;;;;;;5095170;28;20122;-71
2023/05/23 08:33:54;;;;;;;10.32;4.68;;;;;;;;;;5096593;28;20034;-72
2023/05/23 08:36:20;;;;;;;11.82;5.45;;;;;;;;;;5100716;27;20032;-71
2023/05/23 08:38:45;;;;;;;14.60;5.63;;;;;;;;;;5096205;28;20116;-71
2023/05/23 08:41:22;;;;;;;14.15;5.10;;;;;;;;;;5092990;27;20631;-71
2023/05/23 08:43:48;;;;;;;18.10;4.80;;;;;;;;;;5091811;28;20037;-71
2023/05/23 08:46:14;;;;;;;17.73;6.10;;;;;;;;;;5095489;27;20084;-71
2023/05/23 08:48:42;;;;;;;14.18;5.53;;;;;;;;;;5095872;27;20026;-71
2023/05/23 08:51:13;;;;;;;13.05;5.65;;;;;;;;;;5097221;28;20043;-71
2023/05/23 08:53:43;;;;;;;13.68;5.22;;;;;;;;;;5097236;27;20053;-71
2023/05/23 08:56:09;;;;;;;16.80;5.85;;;;;;;;;;5106182;27;20036;-71
2023/05/23 08:58:35;;;;;;;12.38;5.13;;;;;;;;;;5106257;27;20062;-71
2023/05/23 09:01:00;;;;;;;14.45;5.70;;;;;;;;;;5097559;27;20035;-71
2023/05/23 09:03:26;;;;;;;14.95;5.53;;;;;;;;;;5102823;27;20430;-71
2023/05/23 09:05:53;;;;;;;14.50;5.82;;;;;;;;;;5094588;27;20037;-71
2023/05/23 09:08:19;;;;;;;22.00;5.57;;;;;;;;;;5104494;27;20035;-71
2023/05/23 09:10:44;;;;;;;16.33;5.70;;;;;;;;;;5101350;28;20064;-71
2023/05/23 09:13:10;;;;;;;12.07;5.47;;;;;;;;;;5106556;27;20020;-71
2023/05/23 09:15:35;;;;;;;13.23;5.03;;;;;;;;;;5105328;28;20448;-71
2023/05/23 09:18:01;;;;;;;26.65;5.10;;;;;;;;;;5105823;27;20032;-71
2023/05/23 09:20:27;;;;;;;16.25;5.15;;;;;;;;;;5096363;28;20044;-71
2023/05/23 09:22:54;;;;;;;10.82;4.82;;;;;;;;;;5102384;27;20603;-71
2023/05/23 09:25:20;;;;;;;20.60;5.68;;;;;;;;;;5102428;27;20030;-71
2023/05/23 09:27:45;;;;;;;12.65;5.35;;;;;;;;;;5104775;28;20019;-72
2023/05/23 09:30:12;;;;;;;14.10;5.07;;;;;;;;;;5111466;27;20032;-72
2023/05/23 09:32:38;;;;;;;12.38;4.68;;;;;;;;;;5106387;27;20087;-71
2023/05/23 09:35:10;;;;;;;17.55;5.38;;;;;;;;;;5103799;27;20621;-72
2023/05/23 09:37:39;;;;;;;12.00;4.53;;;;;;;;;;5097898;28;20031;-71
2023/05/23 09:40:09;;;;;;;15.90;4.75;;;;;;;;;;5102318;27;20053;-72
2023/05/23 09:42:40;;;;;;;9.68;4.35;;;;;;;;;;5111676;27;20077;-72
2023/05/23 09:45:06;;;;;;;9.65;3.90;;;;;;;;;;5093963;27;20047;-72
2023/05/23 09:47:32;;;;;;;14.98;3.47;;;;;;;;;;5100594;27;20042;-72
2023/05/23 09:49:57;;;;;;;13.48;4.13;;;;;;;;;;5097353;27;20028;-72
2023/05/23 09:52:22;;;;;;;11.32;4.00;;;;;;;;;;5106204;27;20102;-72
2023/05/23 09:54:48;;;;;;;11.18;4.43;;;;;;;;;;5088618;28;20016;-71
2023/05/23 09:57:15;;;;;;;5.15;2.63;;;;;;;;;;5099678;28;20032;-71
2023/05/23 09:59:46;;;;;;;10.43;4.05;;;;;;;;;;5087575;28;20551;-71
2023/05/23 10:02:15;;;;;;;13.52;4.47;;;;;;;;;;5100574;27;20040;-72
2023/05/23 10:04:41;;;;;;;10.48;4.65;;;;;;;;;;5087811;28;20051;-71
2023/05/23 10:07:16;;;;;;;9.13;4.50;;;;;;;;;;5097599;27;20019;-72
2023/05/23 10:09:46;;;;;;;12.07;4.03;;;;;;;;;;5099389;28;20039;-71
2023/05/23 10:12:12;;;;;;;9.48;4.13;;;;;;;;;;5092151;27;20219;-71
2023/05/23 10:14:42;;;;;;;13.57;4.55;;;;;;;;;;5096391;27;20194;-72
2023/05/23 10:17:34;;;;;;;8.90;4.18;;;;;;;;;;5107732;27;20035;-71
2023/05/23 10:20:16;;;;;;;10.02;4.32;;;;;;;;;;5097270;27;20113;-71
2023/05/23 10:22:42;;;;;;;13.95;4.75;;;;;;;;;;5098754;27;20096;-72
2023/05/23 10:25:09;;;;;;;10.82;4.25;;;;;;;;;;5085577;27;20037;-71
2023/05/23 10:27:38;;;;;;;8.13;3.83;;;;;;;;;;5085479;27;20023;-71
2023/05/23 10:30:05;;;;;;;9.93;4.20;;;;;;;;;;5090110;27;20189;-72
2023/05/23 10:32:32;;;;;;;8.80;4.20;;;;;;;;;;5092201;27;20066;-71
2023/05/23 10:35:15;;;;;;;7.85;4.00;;;;;;;;;;5092839;27;20072;-72
2023/05/23 10:38:19;;;;;;;7.57;4.13;;;;;;;;;;5101392;27;20046;-71
2023/05/23 10:40:44;;;;;;;6.82;3.70;;;;;;;;;;5077117;27;20042;-71
2023/05/23 10:43:19;;;;;;;10.07;3.88;;;;;;;;;;5087276;27;20035;-72
2023/05/23 10:45:48;;;;;;;11.05;3.70;;;;;;;;;;5086945;28;20023;-72
2023/05/23 10:48:39;;;;;;;13.48;4.72;;;;;;;;;;5099861;27;20042;-71
2023/05/23 10:51:07;;;;;;;6.78;3.83;;;;;;;;;;5096005;27;20160;-72
2023/05/23 10:53:38;;;;;;;8.70;4.20;;;;;;;;;;5100142;27;20099;-72
2023/05/23 10:56:07;;;;;;;13.00;5.28;;;;;;;;;;5092706;27;20067;-72
2023/05/23 10:58:35;;;;;;;9.10;4.05;;;;;;;;;;5091996;27;20043;-72
2023/05/23 11:01:04;;;;;;;8.02;3.38;;;;;;;;;;5091010;27;20050;-71
2023/05/23 11:03:45;;;;;;;8.77;3.55;;;;;;;;;;5087691;27;20032;-72
2023/05/23 11:06:32;;;;;;;8.43;3.90;;;;;;;;;;5093126;27;20078;-72
2023/05/23 11:09:03;;;;;;;9.82;4.25;;;;;;;;;;5092862;27;20073;-71
2023/05/23 11:11:58;;;;;;;9.32;4.18;;;;;;;;;;5099032;27;20032;-71
2023/05/23 11:14:30;;;;;;;8.45;3.53;;;;;;;;;;5078979;28;20390;-71
2023/05/23 11:16:55;;;;;;;8.13;3.28;;;;;;;;;;5098402;27;20039;-71
2023/05/23 11:19:24;;;;;;;7.75;3.65;;;;;;;;;;5092813;28;20028;-71
2023/05/23 11:21:51;;;;;;;8.00;3.58;;;;;;;;;;5093103;27;20027;-71
2023/05/23 11:24:17;;;;;;;7.15;3.58;;;;;;;;;;5088739;27;20039;-71
2023/05/23 11:27:00;;;;;;;7.20;3.40;;;;;;;;;;5091482;28;20047;-71
2023/05/23 11:29:28;;;;;;;9.50;3.63;;;;;;;;;;5102875;27;20226;-71
2023/05/23 11:31:55;;;;;;;7.78;3.05;;;;;;;;;;5104341;27;20442;-71
2023/05/23 11:34:21;;;;;;;6.18;2.95;;;;;;;;;;5087186;27;20082;-69
2023/05/23 11:36:46;;;;;;;4.15;3.22;;;;;;;;;;5080798;28;20505;-71
2023/05/23 11:39:13;;;;;;;7.82;3.50;;;;;;;;;;5093266;28;20132;-72
2023/05/23 11:41:38;;;;;;;11.55;3.28;;;;;;;;;;5087352;27;20139;-72
2023/05/23 11:44:11;;;;;;;8.00;3.10;;;;;;;;;;5090221;28;20163;-72
2023/05/23 11:46:38;;;;;;;7.03;3.17;;;;;;;;;;5093234;28;20071;-72
2023/05/23 11:49:09;;;;;;;9.60;3.60;;;;;;;;;;5088643;28;20043;-71
2023/05/23 11:51:35;;;;;;;11.63;3.55;;;;;;;;;;5092368;28;20040;-71
2023/05/23 11:54:00;;;;;;;12.57;3.83;;;;;;;;;;5089225;27;20058;-71
2023/05/23 11:56:26;;;;;;;11.30;3.80;;;;;;;;;;5086970;27;20089;-72
2023/05/23 11:58:54;;;;;;;9.18;3.67;;;;;;;;;;5080782;28;20093;-71
2023/05/23 12:01:20;;;;;;;9.35;3.05;;;;;;;;;;5085644;28;20790;-71
2023/05/23 12:03:47;;;;;;;9.43;3.25;;;;;;;;;;5087052;28;20069;-71
2023/05/23 12:06:18;;;;;;;11.13;3.30;;;;;;;;;;5091977;28;20115;-71
2023/05/23 12:08:43;;;;;;;6.05;3.08;;;;;;;;;;5091278;27;20042;-71
2023/05/23 12:11:09;;;;;;;7.43;2.72;;;;;;;;;;5099548;27;20483;-71
2023/05/23 12:13:34;;;;;;;5.95;2.70;;;;;;;;;;5103352;27;20036;-71
2023/05/23 12:16:01;;;;;;;10.35;3.08;;;;;;;;;;5106987;27;20023;-71
2023/05/23 12:18:29;;;;;;;7.72;3.00;;;;;;;;;;5096314;27;20043;-71
2023/05/23 12:20:54;;;;;;;10.02;2.97;;;;;;;;;;5090686;27;21182;-71
2023/05/23 12:23:21;;;;;;;12.57;2.90;;;;;;;;;;5093063;27;20062;-71
2023/05/23 12:25:53;;;;;;;9.82;3.20;;;;;;;;;;5091288;27;20039;-71
2023/05/23 12:28:20;;;;;;;7.80;2.80;;;;;;;;;;5097928;27;20035;-71
2023/05/23 12:30:46;;;;;;;9.77;3.67;;;;;;;;;;5086914;28;20401;-71
2023/05/23 12:33:12;;;;;;;9.25;3.67;;;;;;;;;;5095116;27;20039;-71
2023/05/23 12:35:42;;;;;;;12.27;3.65;;;;;;;;;;5084809;27;20055;-71
2023/05/23 12:38:08;;;;;;;16.23;3.25;;;;;;;;;;5091509;27;20808;-72
2023/05/23 12:40:34;;;;;;;11.73;3.78;;;;;;;;;;5088950;28;20028;-71
2023/05/23 12:43:00;;;;;;;11.98;3.30;;;;;;;;;;5092645;28;20023;-72
2023/05/23 12:45:32;;;;;;;11.75;3.22;;;;;;;;;;5088394;28;20028;-72
2023/05/23 12:47:58;;;;;;;10.15;2.95;;;;;;;;;;5107926;27;20032;-72
2023/05/23 12:50:23;;;;;;;12.43;3.22;;;;;;;;;;5095715;27;20038;-71
2023/05/23 12:52:49;;;;;;;11.77;3.17;;;;;;;;;;5093250;27;20036;-71
2023/05/23 12:55:14;;;;;;;9.77;3.15;;;;;;;;;;5095514;28;20047;-71
2023/05/23 12:57:40;;;;;;;11.27;3.15;;;;;;;;;;5089798;27;20107;-71
2023/05/23 13:00:06;;;;;;;8.95;2.88;;;;;;;;;;5093030;27;20062;-71
2023/05/23 13:02:32;;;;;;;11.88;3.28;;;;;;;;;;5088739;27;20050;-71
2023/05/23 13:04:57;;;;;;;11.38;2.90;;;;;;;;;;5097730;27;20043;-71
2023/05/23 13:07:23;;;;;;;8.95;3.25;;;;;;;;;;5092954;27;20926;-71
2023/05/23 13:09:48;;;;;;;4.95;2.38;;;;;;;;;;5090373;28;20842;-71
2023/05/23 13:12:14;;;;;;;12.02;3.03;;;;;;;;;;5094789;27;20715;-71
2023/05/23 13:14:40;;;;;;;10.60;3.25;;;;;;;;;;5095734;28;20055;-71
2023/05/23 13:17:05;;;;;;;10.80;2.85;;;;;;;;;;5093799;28;20067;-71
2023/05/23 13:19:31;;;;;;;14.38;2.95;;;;;;;;;;5093991;28;20062;-71
2023/05/23 13:21:57;;;;;;;11.90;3.17;;;;;;;;;;5098175;27;20418;-71
2023/05/23 13:24:23;;;;;;;10.20;3.22;;;;;;;;;;5100217;27;20031;-71
2023/05/23 13:26:48;;;;;;;6.38;2.90;;;;;;;;;;5092875;27;20125;-71
2023/05/23 13:29:14;;;;;;;10.10;2.95;;;;;;;;;;5089831;27;20036;-71
2023/05/23 13:31:40;;;;;;;8.65;2.63;;;;;;;;;;5098552;27;20162;-71
2023/05/23 13:34:05;;;;;;;11.77;3.30;;;;;;;;;;5099205;28;20482;-71
2023/05/23 13:36:32;;;;;;;6.15;2.90;;;;;;;;;;5109973;27;20039;-71
2023/05/23 13:38:58;;;;;;;12.90;2.83;;;;;;;;;;5103012;27;20126;-71
2023/05/23 13:41:23;;;;;;;11.73;3.05;;;;;;;;;;5094251;27;20123;-71
2023/05/23 13:43:48;;;;;;;11.38;3.15;;;;;;;;;;5094419;27;20040;-71
2023/05/23 13:46:14;;;;;;;8.55;2.50;;;;;;;;;;5092941;27;20093;-72
2023/05/23 13:48:39;;;;;;;7.13;2.97;;;;;;;;;;5090495;27;20300;-72
2023/05/23 13:51:05;;;;;;;9.55;3.05;;;;;;;;;;5091302;27;20043;-71
2023/05/23 13:53:30;;;;;;;9.35;2.88;;;;;;;;;;5089305;27;20035;-71
2023/05/23 13:55:56;;;;;;;11.35;2.72;;;;;;;;;;5094704;27;20166;-72
2023/05/23 13:58:21;;;;;;;9.43;2.63;;;;;;;;;;5096320;27;20058;-71
2023/05/23 14:00:46;;;;;;;12.38;3.00;;;;;;;;;;5087472;27;20043;-71
2023/05/23 14:03:14;;;;;;;8.20;2.95;;;;;;;;;;5091869;27;20036;-71
2023/05/23 14:05:40;;;;;;;9.75;3.05;;;;;;;;;;5094514;27;20051;-71
2023/05/23 14:08:05;;;;;;;7.60;3.20;;;;;;;;;;5089912;27;20036;-72
2023/05/23 14:10:32;;;;;;;8.40;2.90;;;;;;;;;;5093315;27;20051;-71
2023/05/23 14:12:57;;;;;;;8.38;3.00;;;;;;;;;;5093661;27;20552;-71
2023/05/23 14:15:23;;;;;;;11.98;2.80;;;;;;;;;;5092336;27;20117;-71
2023/05/23 14:17:53;;;;;;;7.05;3.00;;;;;;;;;;5093524;28;20177;-72
2023/05/23 14:20:19;;;;;;;8.40;3.08;;;;;;;;;;5092527;28;20050;-72
2023/05/23 14:22:45;;;;;;;8.20;2.75;;;;;;;;;;5093159;27;20035;-72
2023/05/23 14:25:10;;;;;;;11.15;2.92;;;;;;;;;;5094755;27;20511;-71